sensor_id;sensor_type;location;lat;lon;timestamp;pressure;altitude;pressure_sealevel;temperature;humidity
77366;BME280;66430;50.182;11.704;2023-02-18T00:00:13;95079.82;;;10.49;47.65
77366;BME280;66430;50.182;11.704;2023-02-18T00:02:36;95086.83;;;10.80;47.47
77366;BME280;66430;50.182;11.704;2023-02-18T00:05:01;95079.02;;;10.79;47.09
77366;BME280;66430;50.182;11.704;2023-02-18T00:07:27;95079.90;;;11.03;47.05
77366;BME280;66430;50.182;11.704;2023-02-18T00:09:51;95075.12;;;10.94;47.28
77366;BME280;66430;50.182;11.704;2023-02-18T00:12:16;95077.07;;;10.44;47.63
77366;BME280;66430;50.182;11.704;2023-02-18T00:14:42;95089.05;;;10.79;47.39
77366;BME280;66430;50.182;11.704;2023-02-18T00:17:07;95083.40;;;10.45;47.51
77366;BME280;66430;50.182;11.704;2023-02-18T00:19:33;95092.24;;;10.48;47.57
77366;BME280;66430;50.182;11.704;2023-02-18T00:21:58;95088.07;;;10.58;47.46
77366;BME280;66430;50.182;11.704;2023-02-18T00:24:24;95090.49;;;10.54;47.55
77366;BME280;66430;50.182;11.704;2023-02-18T00:26:51;95080.48;;;10.76;47.16
77366;BME280;66430;50.182;11.704;2023-02-18T00:29:15;95081.53;;;10.26;47.87
77366;BME280;66430;50.182;11.704;2023-02-18T00:31:40;95085.01;;;10.52;47.31
77366;BME280;66430;50.182;11.704;2023-02-18T00:34:06;95088.48;;;10.39;47.48
77366;BME280;66430;50.182;11.704;2023-02-18T00:36:31;95083.73;;;10.26;47.55
77366;BME280;66430;50.182;11.704;2023-02-18T00:39:00;95085.08;;;10.67;47.06
77366;BME280;66430;50.182;11.704;2023-02-18T00:41:23;95085.12;;;10.86;47.21
77366;BME280;66430;50.182;11.704;2023-02-18T00:43:46;95087.85;;;10.54;47.40
77366;BME280;66430;50.182;11.704;2023-02-18T00:46:15;95084.76;;;10.53;47.34
77366;BME280;66430;50.182;11.704;2023-02-18T00:48:38;95084.06;;;10.13;47.53
77366;BME280;66430;50.182;11.704;2023-02-18T00:51:04;95083.02;;;10.72;47.37
77366;BME280;66430;50.182;11.704;2023-02-18T00:53:29;95076.18;;;10.91;47.02
77366;BME280;66430;50.182;11.704;2023-02-18T00:55:54;95072.50;;;10.83;47.03
77366;BME280;66430;50.182;11.704;2023-02-18T00:58:20;95075.57;;;10.84;47.00
77366;BME280;66430;50.182;11.704;2023-02-18T01:00:44;95054.60;;;10.35;46.94
77366;BME280;66430;50.182;11.704;2023-02-18T01:03:12;95071.70;;;9.89;47.52
77366;BME280;66430;50.182;11.704;2023-02-18T01:05:36;95076.27;;;10.65;47.16
77366;BME280;66430;50.182;11.704;2023-02-18T01:08:01;95073.27;;;10.65;47.24
77366;BME280;66430;50.182;11.704;2023-02-18T01:10:27;95066.25;;;10.08;47.22
77366;BME280;66430;50.182;11.704;2023-02-18T01:12:52;95077.42;;;10.45;46.99
77366;BME280;66430;50.182;11.704;2023-02-18T01:15:18;95078.35;;;10.75;46.97
77366;BME280;66430;50.182;11.704;2023-02-18T01:17:44;95083.24;;;10.52;46.99
77366;BME280;66430;50.182;11.704;2023-02-18T01:20:10;95081.90;;;10.56;47.25
77366;BME280;66430;50.182;11.704;2023-02-18T01:22:34;95078.89;;;10.37;46.89
77366;BME280;66430;50.182;11.704;2023-02-18T01:24:59;95073.41;;;10.15;47.42
77366;BME280;66430;50.182;11.704;2023-02-18T01:27:25;95079.45;;;10.69;46.93
77366;BME280;66430;50.182;11.704;2023-02-18T01:29:50;95078.02;;;10.14;47.39
77366;BME280;66430;50.182;11.704;2023-02-18T01:32:15;95077.25;;;9.90;47.34
77366;BME280;66430;50.182;11.704;2023-02-18T01:34:41;95075.78;;;10.62;47.05
77366;BME280;66430;50.182;11.704;2023-02-18T01:37:07;95074.84;;;10.15;47.23
77366;BME280;66430;50.182;11.704;2023-02-18T01:39:33;95080.73;;;10.24;47.18
77366;BME280;66430;50.182;11.704;2023-02-18T01:41:58;95075.58;;;10.61;47.11
77366;BME280;66430;50.182;11.704;2023-02-18T01:44:24;95068.43;;;10.34;46.70
77366;BME280;66430;50.182;11.704;2023-02-18T01:46:49;95067.79;;;10.44;46.27
77366;BME280;66430;50.182;11.704;2023-02-18T01:49:16;95067.78;;;10.49;46.41
77366;BME280;66430;50.182;11.704;2023-02-18T01:51:42;95065.24;;;10.38;46.69
77366;BME280;66430;50.182;11.704;2023-02-18T01:54:07;95067.85;;;10.23;47.03
77366;BME280;66430;50.182;11.704;2023-02-18T01:56:33;95058.99;;;10.70;46.38
77366;BME280;66430;50.182;11.704;2023-02-18T01:58:57;95048.00;;;10.77;46.18
77366;BME280;66430;50.182;11.704;2023-02-18T02:01:21;95052.05;;;10.80;46.42
77366;BME280;66430;50.182;11.704;2023-02-18T02:03:46;95049.25;;;10.43;46.81
77366;BME280;66430;50.182;11.704;2023-02-18T02:06:16;95041.88;;;10.69;46.25
77366;BME280;66430;50.182;11.704;2023-02-18T02:08:37;95044.23;;;10.49;46.25
77366;BME280;66430;50.182;11.704;2023-02-18T02:11:10;95036.93;;;10.36;46.34
77366;BME280;66430;50.182;11.704;2023-02-18T02:13:35;95028.40;;;10.54;46.27
77366;BME280;66430;50.182;11.704;2023-02-18T02:15:56;95036.21;;;10.48;46.44
77366;BME280;66430;50.182;11.704;2023-02-18T02:18:31;95035.66;;;10.41;46.28
77366;BME280;66430;50.182;11.704;2023-02-18T02:23:35;95041.09;;;10.36;45.81
77366;BME280;66430;50.182;11.704;2023-02-18T02:30:41;95033.59;;;10.22;46.37
77366;BME280;66430;50.182;11.704;2023-02-18T02:35:19;95032.91;;;10.44;46.33
77366;BME280;66430;50.182;11.704;2023-02-18T02:37:48;95034.11;;;10.34;45.83
77366;BME280;66430;50.182;11.704;2023-02-18T02:40:16;95032.40;;;10.55;45.92
77366;BME280;66430;50.182;11.704;2023-02-18T02:42:42;95033.41;;;10.34;46.04
77366;BME280;66430;50.182;11.704;2023-02-18T02:45:03;95036.61;;;10.13;46.04
77366;BME280;66430;50.182;11.704;2023-02-18T02:47:31;95043.09;;;10.38;45.92
77366;BME280;66430;50.182;11.704;2023-02-18T02:49:53;95042.45;;;10.44;45.80
77366;BME280;66430;50.182;11.704;2023-02-18T02:52:18;95039.14;;;9.91;45.99
77366;BME280;66430;50.182;11.704;2023-02-18T02:54:39;95042.59;;;10.13;45.98
77366;BME280;66430;50.182;11.704;2023-02-18T02:57:07;95037.75;;;10.27;46.21
77366;BME280;66430;50.182;11.704;2023-02-18T02:59:30;95039.25;;;10.22;46.49
77366;BME280;66430;50.182;11.704;2023-02-18T03:02:07;95033.79;;;10.30;45.87
77366;BME280;66430;50.182;11.704;2023-02-18T03:04:29;95045.48;;;10.04;46.38
77366;BME280;66430;50.182;11.704;2023-02-18T03:07:00;95041.91;;;10.11;46.31
77366;BME280;66430;50.182;11.704;2023-02-18T03:09:16;95039.57;;;10.12;46.84
77366;BME280;66430;50.182;11.704;2023-02-18T03:11:43;95038.32;;;10.22;46.50
77366;BME280;66430;50.182;11.704;2023-02-18T03:14:08;95032.49;;;10.24;46.20
77366;BME280;66430;50.182;11.704;2023-02-18T03:16:34;95036.29;;;10.36;46.37
77366;BME280;66430;50.182;11.704;2023-02-18T03:19:00;95035.81;;;10.26;46.42
77366;BME280;66430;50.182;11.704;2023-02-18T03:21:24;95033.64;;;10.13;46.34
77366;BME280;66430;50.182;11.704;2023-02-18T03:23:50;95033.52;;;10.49;45.91
77366;BME280;66430;50.182;11.704;2023-02-18T03:26:12;95032.05;;;10.18;46.14
77366;BME280;66430;50.182;11.704;2023-02-18T03:28:37;95040.42;;;10.07;46.30
77366;BME280;66430;50.182;11.704;2023-02-18T03:31:06;95043.54;;;10.38;46.13
77366;BME280;66430;50.182;11.704;2023-02-18T03:33:30;95033.60;;;10.03;46.39
77366;BME280;66430;50.182;11.704;2023-02-18T03:35:53;95041.70;;;10.18;46.54
77366;BME280;66430;50.182;11.704;2023-02-18T03:38:20;95038.17;;;10.21;46.56
77366;BME280;66430;50.182;11.704;2023-02-18T03:40:43;95039.10;;;10.39;46.11
77366;BME280;66430;50.182;11.704;2023-02-18T03:43:08;95032.99;;;10.21;46.49
77366;BME280;66430;50.182;11.704;2023-02-18T03:45:33;95030.60;;;10.15;46.66
77366;BME280;66430;50.182;11.704;2023-02-18T03:47:59;95033.53;;;10.38;46.30
77366;BME280;66430;50.182;11.704;2023-02-18T03:50:25;95032.80;;;10.40;46.35
77366;BME280;66430;50.182;11.704;2023-02-18T03:52:50;95035.38;;;9.99;46.65
77366;BME280;66430;50.182;11.704;2023-02-18T03:55:18;95029.22;;;10.11;45.91
77366;BME280;66430;50.182;11.704;2023-02-18T03:57:41;95024.52;;;10.00;46.04
77366;BME280;66430;50.182;11.704;2023-02-18T04:00:07;95030.57;;;10.83;45.79
77366;BME280;66430;50.182;11.704;2023-02-18T04:02:32;95033.34;;;10.17;46.33
77366;BME280;66430;50.182;11.704;2023-02-18T04:04:56;95031.66;;;10.25;46.14
77366;BME280;66430;50.182;11.704;2023-02-18T04:07:22;95026.21;;;10.53;46.02
77366;BME280;66430;50.182;11.704;2023-02-18T04:09:47;95029.62;;;10.56;46.04
77366;BME280;66430;50.182;11.704;2023-02-18T04:12:12;95035.46;;;10.37;46.33
77366;BME280;66430;50.182;11.704;2023-02-18T04:14:37;95042.11;;;10.03;46.67
77366;BME280;66430;50.182;11.704;2023-02-18T04:17:03;95047.92;;;10.17;46.31
77366;BME280;66430;50.182;11.704;2023-02-18T04:19:29;95053.81;;;9.78;46.54
77366;BME280;66430;50.182;11.704;2023-02-18T04:21:55;95055.47;;;10.43;46.25
77366;BME280;66430;50.182;11.704;2023-02-18T04:24:19;95057.10;;;10.33;46.58
77366;BME280;66430;50.182;11.704;2023-02-18T04:26:45;95062.44;;;10.20;47.00
77366;BME280;66430;50.182;11.704;2023-02-18T04:29:10;95057.89;;;10.25;47.06
77366;BME280;66430;50.182;11.704;2023-02-18T04:31:35;95055.79;;;10.50;46.58
77366;BME280;66430;50.182;11.704;2023-02-18T04:34:01;95057.52;;;10.30;46.86
77366;BME280;66430;50.182;11.704;2023-02-18T04:36:26;95054.08;;;9.76;47.05
77366;BME280;66430;50.182;11.704;2023-02-18T04:38:51;95057.85;;;10.47;46.61
77366;BME280;66430;50.182;11.704;2023-02-18T04:41:17;95055.65;;;10.52;46.57
77366;BME280;66430;50.182;11.704;2023-02-18T04:43:42;95059.72;;;9.99;47.26
77366;BME280;66430;50.182;11.704;2023-02-18T04:46:09;95065.56;;;10.33;47.32
77366;BME280;66430;50.182;11.704;2023-02-18T04:48:33;95057.71;;;10.15;47.03
77366;BME280;66430;50.182;11.704;2023-02-18T04:50:59;95055.61;;;10.13;46.94
77366;BME280;66430;50.182;11.704;2023-02-18T04:53:24;95045.04;;;10.55;46.84
77366;BME280;66430;50.182;11.704;2023-02-18T04:55:51;95045.25;;;10.35;46.75
77366;BME280;66430;50.182;11.704;2023-02-18T04:58:16;95039.34;;;10.22;46.73
77366;BME280;66430;50.182;11.704;2023-02-18T05:00:40;95032.20;;;10.62;46.61
77366;BME280;66430;50.182;11.704;2023-02-18T05:03:05;95034.98;;;10.49;46.90
77366;BME280;66430;50.182;11.704;2023-02-18T05:05:33;95033.25;;;10.28;46.37
77366;BME280;66430;50.182;11.704;2023-02-18T05:07:56;95032.70;;;10.57;46.26
77366;BME280;66430;50.182;11.704;2023-02-18T05:10:22;95022.31;;;10.28;46.54
77366;BME280;66430;50.182;11.704;2023-02-18T05:12:47;95024.36;;;10.64;46.51
77366;BME280;66430;50.182;11.704;2023-02-18T05:15:13;95016.54;;;10.41;46.85
77366;BME280;66430;50.182;11.704;2023-02-18T05:17:40;95011.28;;;10.61;46.49
77366;BME280;66430;50.182;11.704;2023-02-18T05:20:05;95003.22;;;10.25;46.75
77366;BME280;66430;50.182;11.704;2023-02-18T05:22:29;95005.12;;;10.28;46.85
77366;BME280;66430;50.182;11.704;2023-02-18T05:24:55;95001.23;;;10.58;46.83
77366;BME280;66430;50.182;11.704;2023-02-18T05:27:20;94997.68;;;10.37;46.67
77366;BME280;66430;50.182;11.704;2023-02-18T05:29:45;94994.97;;;10.45;46.78
77366;BME280;66430;50.182;11.704;2023-02-18T05:32:10;94988.34;;;10.29;46.38
77366;BME280;66430;50.182;11.704;2023-02-18T05:34:37;94987.94;;;9.91;46.80
77366;BME280;66430;50.182;11.704;2023-02-18T05:37:01;94983.00;;;9.94;46.91
77366;BME280;66430;50.182;11.704;2023-02-18T05:39:28;94972.66;;;10.42;46.44
77366;BME280;66430;50.182;11.704;2023-02-18T05:41:52;94977.62;;;10.14;46.90
77366;BME280;66430;50.182;11.704;2023-02-18T05:44:17;94976.63;;;10.35;46.93
77366;BME280;66430;50.182;11.704;2023-02-18T05:46:43;94964.68;;;10.69;46.37
77366;BME280;66430;50.182;11.704;2023-02-18T05:49:08;94965.65;;;10.07;46.60
77366;BME280;66430;50.182;11.704;2023-02-18T05:51:34;94967.37;;;10.78;46.44
77366;BME280;66430;50.182;11.704;2023-02-18T05:53:59;94968.95;;;10.66;46.52
77366;BME280;66430;50.182;11.704;2023-02-18T05:56:24;94966.75;;;10.34;46.37
77366;BME280;66430;50.182;11.704;2023-02-18T05:58:50;94969.53;;;10.25;46.89
77366;BME280;66430;50.182;11.704;2023-02-18T06:01:15;94961.72;;;10.34;46.65
77366;BME280;66430;50.182;11.704;2023-02-18T06:03:41;94967.81;;;10.78;46.32
77366;BME280;66430;50.182;11.704;2023-02-18T06:06:07;94962.66;;;10.55;46.19
77366;BME280;66430;50.182;11.704;2023-02-18T06:08:31;94970.08;;;10.16;46.56
77366;BME280;66430;50.182;11.704;2023-02-18T06:10:58;94971.08;;;10.77;46.44
77366;BME280;66430;50.182;11.704;2023-02-18T06:13:23;94966.71;;;10.44;46.72
77366;BME280;66430;50.182;11.704;2023-02-18T06:15:50;94974.79;;;10.31;47.03
77366;BME280;66430;50.182;11.704;2023-02-18T06:18:15;94971.89;;;10.41;46.77
77366;BME280;66430;50.182;11.704;2023-02-18T06:20:39;94963.67;;;10.79;46.59
77366;BME280;66430;50.182;11.704;2023-02-18T06:23:04;94964.27;;;10.38;47.04
77366;BME280;66430;50.182;11.704;2023-02-18T06:25:30;94957.26;;;10.50;47.10
77366;BME280;66430;50.182;11.704;2023-02-18T06:27:57;94957.87;;;10.23;47.09
77366;BME280;66430;50.182;11.704;2023-02-18T06:30:23;94956.13;;;10.18;46.81
77366;BME280;66430;50.182;11.704;2023-02-18T06:32:46;94949.84;;;10.02;47.11
77366;BME280;66430;50.182;11.704;2023-02-18T06:35:12;94955.92;;;10.37;46.71
77366;BME280;66430;50.182;11.704;2023-02-18T06:37:37;94956.36;;;10.57;46.86
77366;BME280;66430;50.182;11.704;2023-02-18T06:40:03;94954.06;;;10.51;46.78
77366;BME280;66430;50.182;11.704;2023-02-18T06:42:28;94952.80;;;10.64;46.69
77366;BME280;66430;50.182;11.704;2023-02-18T06:44:53;94949.54;;;10.15;47.29
77366;BME280;66430;50.182;11.704;2023-02-18T06:47:19;94947.63;;;10.44;46.86
77366;BME280;66430;50.182;11.704;2023-02-18T06:49:44;94951.40;;;10.53;46.56
77366;BME280;66430;50.182;11.704;2023-02-18T06:52:10;94946.27;;;10.77;46.15
77366;BME280;66430;50.182;11.704;2023-02-18T06:54:35;94944.65;;;10.26;46.65
77366;BME280;66430;50.182;11.704;2023-02-18T06:57:00;94950.39;;;10.41;46.55
77366;BME280;66430;50.182;11.704;2023-02-18T06:59:26;94943.32;;;10.68;46.34
77366;BME280;66430;50.182;11.704;2023-02-18T07:01:52;94936.32;;;10.65;46.37
77366;BME280;66430;50.182;11.704;2023-02-18T07:04:17;94932.43;;;10.39;45.99
77366;BME280;66430;50.182;11.704;2023-02-18T07:06:42;94932.52;;;10.58;46.34
77366;BME280;66430;50.182;11.704;2023-02-18T07:09:08;94938.88;;;10.53;46.36
77366;BME280;66430;50.182;11.704;2023-02-18T07:11:33;94935.86;;;10.34;46.19
77366;BME280;66430;50.182;11.704;2023-02-18T07:13:59;94933.71;;;10.32;46.65
77366;BME280;66430;50.182;11.704;2023-02-18T07:16:24;94940.36;;;10.58;46.59
77366;BME280;66430;50.182;11.704;2023-02-18T07:18:50;94939.30;;;10.46;47.06
77366;BME280;66430;50.182;11.704;2023-02-18T07:21:15;94942.48;;;10.30;46.77
77366;BME280;66430;50.182;11.704;2023-02-18T07:23:41;94938.60;;;10.54;46.56
77366;BME280;66430;50.182;11.704;2023-02-18T07:26:07;94935.48;;;10.18;46.90
77366;BME280;66430;50.182;11.704;2023-02-18T07:28:31;94935.06;;;10.34;47.49
77366;BME280;66430;50.182;11.704;2023-02-18T07:30:57;94930.11;;;10.36;47.16
77366;BME280;66430;50.182;11.704;2023-02-18T07:33:22;94933.39;;;10.56;47.11
77366;BME280;66430;50.182;11.704;2023-02-18T07:35:53;94929.66;;;10.12;47.58
77366;BME280;66430;50.182;11.704;2023-02-18T07:38:14;94923.10;;;10.46;47.44
77366;BME280;66430;50.182;11.704;2023-02-18T07:40:38;94917.61;;;10.80;46.94
77366;BME280;66430;50.182;11.704;2023-02-18T07:43:04;94914.80;;;10.18;47.30
77366;BME280;66430;50.182;11.704;2023-02-18T07:45:30;94907.47;;;10.00;47.55
77366;BME280;66430;50.182;11.704;2023-02-18T07:47:55;94904.60;;;10.38;47.42
77366;BME280;66430;50.182;11.704;2023-02-18T07:50:21;94903.96;;;10.71;47.27
77366;BME280;66430;50.182;11.704;2023-02-18T07:52:46;94898.88;;;11.11;46.52
77366;BME280;66430;50.182;11.704;2023-02-18T07:55:11;94896.16;;;10.76;46.51
77366;BME280;66430;50.182;11.704;2023-02-18T07:57:37;94891.38;;;10.54;46.57
77366;BME280;66430;50.182;11.704;2023-02-18T08:00:03;94888.19;;;10.95;46.56
77366;BME280;66430;50.182;11.704;2023-02-18T08:02:28;94889.55;;;10.82;46.53
77366;BME280;66430;50.182;11.704;2023-02-18T08:04:53;94887.42;;;10.66;46.87
77366;BME280;66430;50.182;11.704;2023-02-18T08:07:20;94886.33;;;10.68;46.56
77366;BME280;66430;50.182;11.704;2023-02-18T08:09:44;94886.88;;;10.75;46.64
77366;BME280;66430;50.182;11.704;2023-02-18T08:12:10;94878.68;;;10.73;46.50
77366;BME280;66430;50.182;11.704;2023-02-18T08:14:36;94878.44;;;10.98;46.53
77366;BME280;66430;50.182;11.704;2023-02-18T08:17:00;94878.19;;;10.72;46.80
77366;BME280;66430;50.182;11.704;2023-02-18T08:19:26;94873.15;;;10.53;47.06
77366;BME280;66430;50.182;11.704;2023-02-18T08:21:51;94867.38;;;11.07;46.55
77366;BME280;66430;50.182;11.704;2023-02-18T08:24:17;94865.66;;;11.06;46.14
77366;BME280;66430;50.182;11.704;2023-02-18T08:26:42;94861.67;;;11.21;46.42
77366;BME280;66430;50.182;11.704;2023-02-18T08:29:07;94854.82;;;11.03;46.85
77366;BME280;66430;50.182;11.704;2023-02-18T08:31:33;94845.08;;;10.87;46.71
77366;BME280;66430;50.182;11.704;2023-02-18T08:33:59;94848.64;;;10.77;47.20
77366;BME280;66430;50.182;11.704;2023-02-18T08:36:24;94847.77;;;10.74;47.23
77366;BME280;66430;50.182;11.704;2023-02-18T08:38:50;94862.08;;;10.53;47.14
77366;BME280;66430;50.182;11.704;2023-02-18T08:41:15;94844.72;;;10.46;47.12
77366;BME280;66430;50.182;11.704;2023-02-18T08:43:40;94849.09;;;10.35;47.41
77366;BME280;66430;50.182;11.704;2023-02-18T08:46:05;94837.98;;;10.84;47.27
77366;BME280;66430;50.182;11.704;2023-02-18T08:48:31;94842.04;;;11.16;46.77
77366;BME280;66430;50.182;11.704;2023-02-18T08:50:56;94841.22;;;11.07;46.77
77366;BME280;66430;50.182;11.704;2023-02-18T08:53:22;94840.41;;;10.27;47.21
77366;BME280;66430;50.182;11.704;2023-02-18T08:55:48;94848.51;;;10.59;46.86
77366;BME280;66430;50.182;11.704;2023-02-18T08:58:13;94840.53;;;9.99;48.05
77366;BME280;66430;50.182;11.704;2023-02-18T09:00:39;94846.54;;;10.13;47.41
77366;BME280;66430;50.182;11.704;2023-02-18T09:03:05;94831.26;;;10.62;46.99
77366;BME280;66430;50.182;11.704;2023-02-18T09:05:29;94840.24;;;10.42;47.16
77366;BME280;66430;50.182;11.704;2023-02-18T09:07:55;94844.01;;;10.46;47.67
77366;BME280;66430;50.182;11.704;2023-02-18T09:10:20;94844.81;;;9.94;47.79
77366;BME280;66430;50.182;11.704;2023-02-18T09:12:45;94840.68;;;10.17;47.33
77366;BME280;66430;50.182;11.704;2023-02-18T09:15:10;94838.21;;;10.78;47.08
77366;BME280;66430;50.182;11.704;2023-02-18T09:17:35;94841.04;;;10.21;47.56
77366;BME280;66430;50.182;11.704;2023-02-18T09:20:02;94841.70;;;10.79;47.00
77366;BME280;66430;50.182;11.704;2023-02-18T09:22:26;94847.46;;;10.37;46.98
77366;BME280;66430;50.182;11.704;2023-02-18T09:24:51;94851.76;;;10.69;47.08
77366;BME280;66430;50.182;11.704;2023-02-18T09:27:17;94847.40;;;10.46;47.03
77366;BME280;66430;50.182;11.704;2023-02-18T09:29:42;94842.44;;;10.37;47.10
77366;BME280;66430;50.182;11.704;2023-02-18T09:32:08;94840.26;;;10.06;46.72
77366;BME280;66430;50.182;11.704;2023-02-18T09:34:35;94843.02;;;10.44;46.72
77366;BME280;66430;50.182;11.704;2023-02-18T09:36:59;94837.19;;;10.05;47.02
77366;BME280;66430;50.182;11.704;2023-02-18T09:39:24;94836.87;;;10.22;46.78
77366;BME280;66430;50.182;11.704;2023-02-18T09:41:51;94834.23;;;10.03;46.72
77366;BME280;66430;50.182;11.704;2023-02-18T09:44:20;94815.12;;;10.15;46.37
77366;BME280;66430;50.182;11.704;2023-02-18T09:46:47;94828.20;;;10.43;46.51
77366;BME280;66430;50.182;11.704;2023-02-18T09:49:12;94830.66;;;10.11;46.40
77366;BME280;66430;50.182;11.704;2023-02-18T09:51:32;94826.98;;;10.40;46.41
77366;BME280;66430;50.182;11.704;2023-02-18T09:54:00;94825.69;;;10.26;45.99
77366;BME280;66430;50.182;11.704;2023-02-18T09:56:28;94821.76;;;10.30;46.23
77366;BME280;66430;50.182;11.704;2023-02-18T09:58:49;94817.23;;;10.40;45.82
77366;BME280;66430;50.182;11.704;2023-02-18T10:01:21;94806.58;;;10.46;45.76
77366;BME280;66430;50.182;11.704;2023-02-18T10:10:56;94799.52;;;10.14;45.04
77366;BME280;66430;50.182;11.704;2023-02-18T10:13:23;94798.09;;;10.05;45.28
77366;BME280;66430;50.182;11.704;2023-02-18T10:15:46;94800.27;;;10.06;45.34
77366;BME280;66430;50.182;11.704;2023-02-18T10:18:21;94804.69;;;10.02;44.80
77366;BME280;66430;50.182;11.704;2023-02-18T10:20:36;94793.88;;;10.24;44.43
77366;BME280;66430;50.182;11.704;2023-02-18T10:23:02;94800.26;;;10.16;44.58
77366;BME280;66430;50.182;11.704;2023-02-18T10:25:27;94797.20;;;9.99;44.86
77366;BME280;66430;50.182;11.704;2023-02-18T10:27:52;94794.52;;;9.82;45.05
77366;BME280;66430;50.182;11.704;2023-02-18T10:30:23;94797.75;;;10.13;45.06
77366;BME280;66430;50.182;11.704;2023-02-18T10:32:44;94803.21;;;9.80;44.45
77366;BME280;66430;50.182;11.704;2023-02-18T10:35:14;94791.79;;;10.04;44.43
77366;BME280;66430;50.182;11.704;2023-02-18T10:37:44;94780.22;;;10.42;44.21
77366;BME280;66430;50.182;11.704;2023-02-18T10:40:06;94782.01;;;10.60;44.12
77366;BME280;66430;50.182;11.704;2023-02-18T10:42:30;94781.48;;;10.06;44.60
77366;BME280;66430;50.182;11.704;2023-02-18T10:44:57;94778.04;;;10.06;44.59
77366;BME280;66430;50.182;11.704;2023-02-18T10:47:22;94766.01;;;10.01;44.71
77366;BME280;66430;50.182;11.704;2023-02-18T10:49:52;94764.29;;;9.99;43.76
77366;BME280;66430;50.182;11.704;2023-02-18T10:52:08;94767.38;;;10.45;43.43
77366;BME280;66430;50.182;11.704;2023-02-18T10:57:01;94764.30;;;10.52;44.13
77366;BME280;66430;50.182;11.704;2023-02-18T10:59:23;94753.46;;;10.48;44.20
77366;BME280;66430;50.182;11.704;2023-02-18T11:01:53;94745.27;;;9.93;44.11
77366;BME280;66430;50.182;11.704;2023-02-18T11:04:15;94754.60;;;10.43;43.58
77366;BME280;66430;50.182;11.704;2023-02-18T11:06:40;94747.84;;;10.31;43.93
77366;BME280;66430;50.182;11.704;2023-02-18T11:09:03;94744.46;;;10.14;43.89
77366;BME280;66430;50.182;11.704;2023-02-18T11:11:31;94743.25;;;10.57;44.05
77366;BME280;66430;50.182;11.704;2023-02-18T11:13:56;94729.49;;;10.04;44.02
77366;BME280;66430;50.182;11.704;2023-02-18T11:16:21;94735.44;;;10.05;43.75
77366;BME280;66430;50.182;11.704;2023-02-18T11:18:45;94736.96;;;10.29;44.08
77366;BME280;66430;50.182;11.704;2023-02-18T11:21:19;94730.33;;;10.53;43.68
77366;BME280;66430;50.182;11.704;2023-02-18T11:23:45;94727.53;;;10.20;43.25
77366;BME280;66430;50.182;11.704;2023-02-18T11:26:04;94724.34;;;10.85;42.75
77366;BME280;66430;50.182;11.704;2023-02-18T11:28:39;94727.77;;;10.25;43.29
77366;BME280;66430;50.182;11.704;2023-02-18T11:31:00;94726.37;;;10.52;43.10
77366;BME280;66430;50.182;11.704;2023-02-18T11:33:20;94724.47;;;10.58;43.26
77366;BME280;66430;50.182;11.704;2023-02-18T11:35:48;94718.22;;;10.25;42.86
77366;BME280;66430;50.182;11.704;2023-02-18T11:38:20;94726.90;;;10.69;42.51
77366;BME280;66430;50.182;11.704;2023-02-18T11:40:35;94716.73;;;10.32;42.86
77366;BME280;66430;50.182;11.704;2023-02-18T11:43:03;94717.21;;;9.96;42.98
77366;BME280;66430;50.182;11.704;2023-02-18T11:45:31;94728.59;;;10.23;43.25
77366;BME280;66430;50.182;11.704;2023-02-18T11:47:58;94714.33;;;10.22;42.79
77366;BME280;66430;50.182;11.704;2023-02-18T11:50:21;94716.40;;;10.44;42.85
77366;BME280;66430;50.182;11.704;2023-02-18T11:52:44;94709.92;;;10.59;42.41
77366;BME280;66430;50.182;11.704;2023-02-18T11:55:16;94714.09;;;10.67;41.72
77366;BME280;66430;50.182;11.704;2023-02-18T11:57:40;94706.23;;;10.43;41.67
77366;BME280;66430;50.182;11.704;2023-02-18T12:00:01;94703.46;;;10.33;42.12
77366;BME280;66430;50.182;11.704;2023-02-18T12:02:31;94693.54;;;9.92;41.65
77366;BME280;66430;50.182;11.704;2023-02-18T12:04:53;94693.59;;;10.52;40.98
77366;BME280;66430;50.182;11.704;2023-02-18T12:07:19;94686.10;;;10.59;40.94
77366;BME280;66430;50.182;11.704;2023-02-18T12:09:45;94691.19;;;10.66;41.82
77366;BME280;66430;50.182;11.704;2023-02-18T12:12:12;94680.75;;;10.43;41.75
77366;BME280;66430;50.182;11.704;2023-02-18T12:14:33;94693.13;;;10.27;40.76
77366;BME280;66430;50.182;11.704;2023-02-18T12:17:08;94694.08;;;10.27;41.65
77366;BME280;66430;50.182;11.704;2023-02-18T12:21:57;94691.58;;;10.25;40.74
77366;BME280;66430;50.182;11.704;2023-02-18T12:24:25;94682.19;;;10.42;40.34
77366;BME280;66430;50.182;11.704;2023-02-18T12:26:47;94687.63;;;10.06;40.81
77366;BME280;66430;50.182;11.704;2023-02-18T12:29:16;94684.62;;;10.40;39.52
77366;BME280;66430;50.182;11.704;2023-02-18T12:31:42;94682.09;;;10.16;40.59
77366;BME280;66430;50.182;11.704;2023-02-18T12:34:06;94680.31;;;10.62;39.96
77366;BME280;66430;50.182;11.704;2023-02-18T12:36:27;94675.87;;;10.16;40.23
77366;BME280;66430;50.182;11.704;2023-02-18T12:38:53;94676.91;;;10.42;40.54
77366;BME280;66430;50.182;11.704;2023-02-18T12:41:23;94678.65;;;10.33;39.68
77366;BME280;66430;50.182;11.704;2023-02-18T12:43:43;94683.47;;;10.31;39.40
77366;BME280;66430;50.182;11.704;2023-02-18T12:46:21;94677.23;;;10.13;40.39
77366;BME280;66430;50.182;11.704;2023-02-18T12:48:44;94671.92;;;10.28;39.20
77366;BME280;66430;50.182;11.704;2023-02-18T12:51:04;94672.97;;;10.31;39.49
77366;BME280;66430;50.182;11.704;2023-02-18T12:53:31;94674.68;;;9.88;39.87
77366;BME280;66430;50.182;11.704;2023-02-18T12:55:56;94677.49;;;10.23;39.80
77366;BME280;66430;50.182;11.704;2023-02-18T12:58:20;94676.39;;;10.20;39.91
77366;BME280;66430;50.182;11.704;2023-02-18T13:00:49;94667.65;;;10.43;39.59